Time;durP1;ratioP1;P1;durP2;ratioP2;P2;SDS_P1;SDS_P2;PMS_P1;PMS_P2;Temp;Humidity;BMP_temperature;BMP_pressure;BME280_temperature;BME280_humidity;BME280_pressure;Samples;Min_cycle;Max_cycle;Signal;HPM_P1;HPM_P2
2024/01/09 00:00:40;;;;;;;18.70;6.85;;;;;;;-5.82;75.82;102946.47;5024105;28;20088;-76
2024/01/09 00:03:05;;;;;;;15.77;6.07;;;;;;;-5.80;76.06;102949.84;5025542;28;20036;-75
2024/01/09 00:05:31;;;;;;;13.95;5.90;;;;;;;-5.84;75.27;102945.59;5022378;28;20389;-75
2024/01/09 00:07:56;;;;;;;14.45;5.82;;;;;;;-5.78;75.27;102950.69;5028851;28;20036;-75
2024/01/09 00:10:22;;;;;;;16.63;6.75;;;;;;;-5.82;75.95;102950.69;5009912;28;20041;-75
2024/01/09 00:12:47;;;;;;;19.70;6.47;;;;;;;-5.87;76.68;102955.72;5011113;28;20029;-75
2024/01/09 00:15:13;;;;;;;21.50;6.32;;;;;;;-5.83;76.07;102949.00;5003610;28;20480;-75
2024/01/09 00:17:38;;;;;;;15.57;5.60;;;;;;;-5.84;76.07;102943.09;5030044;28;20037;-75
2024/01/09 00:20:04;;;;;;;17.33;5.88;;;;;;;-5.84;75.36;102944.78;4994299;28;20034;-74
2024/01/09 00:22:29;;;;;;;17.75;6.65;;;;;;;-5.90;76.93;102938.88;5007515;28;20471;-75
2024/01/09 00:24:55;;;;;;;15.38;6.20;;;;;;;-5.91;76.74;102943.94;5007914;28;20491;-75
2024/01/09 00:27:20;;;;;;;14.63;5.72;;;;;;;-5.88;76.08;102947.31;5025641;28;20403;-74
2024/01/09 00:29:45;;;;;;;16.85;6.28;;;;;;;-5.94;76.06;102944.75;5029924;28;20030;-75
2024/01/09 00:32:11;;;;;;;17.85;6.70;;;;;;;-5.95;76.89;102942.25;5010430;28;20041;-75
2024/01/09 00:34:36;;;;;;;14.18;6.38;;;;;;;-5.88;76.02;102947.31;5028151;28;20045;-75
2024/01/09 00:37:02;;;;;;;20.38;6.40;;;;;;;-5.86;75.45;102944.78;5026063;28;20125;-75
2024/01/09 00:39:27;;;;;;;13.63;5.82;;;;;;;-5.88;75.57;102943.94;5012943;28;20064;-75
2024/01/09 00:41:53;;;;;;;13.88;5.75;;;;;;;-5.84;74.99;102944.78;5025961;28;20034;-75
2024/01/09 00:44:18;;;;;;;15.68;6.70;;;;;;;-5.87;76.14;102950.69;5025052;28;20042;-75
2024/01/09 00:46:44;;;;;;;18.65;6.72;;;;;;;-5.90;76.66;102950.66;5024391;28;20037;-75
2024/01/09 00:49:09;;;;;;;17.02;5.63;;;;;;;-5.93;75.17;102949.00;5022263;28;20045;-75
2024/01/09 00:51:35;;;;;;;15.05;5.95;;;;;;;-5.96;75.50;102949.00;5024102;28;20079;-75
2024/01/09 00:54:00;;;;;;;16.48;6.10;;;;;;;-5.88;75.63;102951.50;5009915;28;20037;-75
2024/01/09 00:56:26;;;;;;;16.55;5.78;;;;;;;-5.84;75.68;102949.84;5004333;28;20053;-75
2024/01/09 00:58:51;;;;;;;15.18;6.07;;;;;;;-6.01;75.44;102953.19;5010325;28;20029;-75
2024/01/09 01:01:16;;;;;;;18.95;6.00;;;;;;;-5.99;75.27;102945.63;5009092;28;20044;-75
2024/01/09 01:03:42;;;;;;;16.48;5.97;;;;;;;-6.03;75.59;102949.00;5027879;28;20037;-75
2024/01/09 01:06:08;;;;;;;12.68;5.90;;;;;;;-5.99;75.29;102946.50;5024445;28;20442;-74
2024/01/09 01:08:34;;;;;;;14.07;6.25;;;;;;;-5.99;75.12;102945.63;5011492;28;20037;-74
2024/01/09 01:11:00;;;;;;;12.77;5.00;;;;;;;-6.00;74.67;102949.84;5026157;28;20499;-75
2024/01/09 01:13:26;;;;;;;16.42;6.45;;;;;;;-6.00;75.24;102949.00;5027691;28;20033;-75
2024/01/09 01:15:51;;;;;;;15.60;5.45;;;;;;;-5.98;75.09;102947.31;5018813;28;20419;-75
2024/01/09 01:18:17;;;;;;;14.07;5.63;;;;;;;-5.95;74.32;102942.25;5017704;28;20029;-75
2024/01/09 01:20:42;;;;;;;21.65;5.75;;;;;;;-6.05;74.91;102954.03;5019557;28;20044;-77
2024/01/09 01:23:08;;;;;;;13.27;5.70;;;;;;;-5.97;74.36;102949.84;5006464;28;20495;-75
2024/01/09 01:25:33;;;;;;;13.20;5.30;;;;;;;-6.01;75.22;102947.31;5020326;28;20049;-74
2024/01/09 01:27:59;;;;;;;15.43;6.20;;;;;;;-6.09;75.41;102944.78;5002182;28;20033;-75
2024/01/09 01:30:24;;;;;;;18.15;6.13;;;;;;;-6.11;74.98;102959.91;5005355;28;20694;-75
2024/01/09 01:32:50;;;;;;;14.85;5.63;;;;;;;-6.15;75.17;102949.81;5022706;28;20523;-74
2024/01/09 01:35:15;;;;;;;16.60;5.32;;;;;;;-6.11;75.63;102951.50;5022031;28;20048;-74
2024/01/09 01:37:41;;;;;;;17.92;5.90;;;;;;;-6.00;74.99;102949.84;5024177;28;20053;-74
2024/01/09 01:40:07;;;;;;;12.77;5.65;;;;;;;-6.17;75.01;102954.84;5020088;28;20029;-75
2024/01/09 01:42:32;;;;;;;14.85;5.30;;;;;;;-6.15;74.76;102952.34;5020624;28;20033;-74
2024/01/09 01:44:58;;;;;;;14.43;5.20;;;;;;;-6.08;74.35;102947.31;5007902;28;20033;-75
2024/01/09 01:47:24;;;;;;;12.77;5.40;;;;;;;-6.21;74.78;102954.84;5004132;28;20030;-75
2024/01/09 01:49:50;;;;;;;14.00;4.60;;;;;;;-6.20;75.26;102954.84;5011628;28;20029;-74
2024/01/09 01:52:15;;;;;;;16.25;5.75;;;;;;;-6.19;74.61;102948.97;5023892;28;20029;-74
2024/01/09 01:54:41;;;;;;;13.25;5.63;;;;;;;-6.14;73.89;102943.91;5022701;28;20033;-75
2024/01/09 01:57:08;;;;;;;12.52;5.20;;;;;;;-6.24;74.49;102943.03;5020970;28;20037;-75
2024/01/09 01:59:39;;;;;;;11.82;4.95;;;;;;;-6.26;75.64;102939.66;5022749;28;20038;-74
2024/01/09 02:02:05;;;;;;;13.52;5.10;;;;;;;-6.30;75.03;102948.91;5008599;28;20083;-75
2024/01/09 02:04:32;;;;;;;10.10;5.45;;;;;;;-6.35;75.62;102950.56;5006492;28;20491;-74
2024/01/09 02:06:58;;;;;;;10.02;4.97;;;;;;;-6.36;75.40;102948.06;5009187;28;20036;-75
2024/01/09 02:09:24;;;;;;;10.18;4.50;;;;;;;-6.30;74.47;102950.59;5025598;28;20036;-74
2024/01/09 02:11:49;;;;;;;9.95;4.82;;;;;;;-6.26;73.61;102950.59;5005747;28;20037;-74
2024/01/09 02:14:15;;;;;;;14.13;5.50;;;;;;;-6.27;73.42;102948.94;5004755;28;20026;-75
2024/01/09 02:16:41;;;;;;;12.27;4.90;;;;;;;-6.26;73.81;102947.25;5009956;28;20597;-75
2024/01/09 02:19:06;;;;;;;11.82;5.05;;;;;;;-6.32;74.20;102947.22;5024201;28;20060;-74
2024/01/09 02:21:33;;;;;;;14.40;4.25;;;;;;;-6.34;74.44;102942.19;5020444;28;20119;-74
2024/01/09 02:23:58;;;;;;;13.60;5.10;;;;;;;-6.40;73.51;102937.13;5027364;28;20084;-75
2024/01/09 02:26:30;;;;;;;10.70;4.70;;;;;;;-6.39;73.64;102943.00;5020958;28;20768;-75
2024/01/09 02:29:01;;;;;;;11.93;4.80;;;;;;;-6.37;73.60;102939.63;5024418;28;20040;-75
2024/01/09 02:31:27;;;;;;;12.07;4.97;;;;;;;-6.35;73.48;102939.63;5008799;28;20035;-75
2024/01/09 02:33:54;;;;;;;11.00;4.47;;;;;;;-6.37;73.04;102937.09;5008254;28;20095;-74
2024/01/09 02:36:19;;;;;;;18.00;5.03;;;;;;;-6.35;73.11;102935.41;5012989;28;20041;-74
2024/01/09 02:38:45;;;;;;;13.50;5.35;;;;;;;-6.36;73.44;102935.44;4987032;28;20042;-75
2024/01/09 02:41:10;;;;;;;18.80;5.90;;;;;;;-6.44;74.20;102937.06;4989494;28;20164;-74
2024/01/09 02:43:36;;;;;;;13.27;4.50;;;;;;;-6.37;74.21;102939.63;5006672;28;20039;-74
2024/01/09 02:46:01;;;;;;;14.23;4.65;;;;;;;-6.46;74.15;102926.97;5006488;28;20037;-75
2024/01/09 02:48:27;;;;;;;15.73;5.22;;;;;;;-6.44;74.05;102927.84;5008423;28;20079;-75
2024/01/09 02:50:52;;;;;;;10.80;4.95;;;;;;;-6.37;72.86;102933.75;5020900;28;20042;-75
2024/01/09 02:53:17;;;;;;;13.77;4.80;;;;;;;-6.47;73.12;102928.66;4988581;28;20026;-74
2024/01/09 02:55:43;;;;;;;11.98;5.15;;;;;;;-6.51;73.02;102928.66;5020853;28;20034;-74
2024/01/09 02:58:09;;;;;;;11.85;4.47;;;;;;;-6.55;73.67;102922.75;5023175;28;20511;-74
2024/01/09 03:00:34;;;;;;;9.35;4.45;;;;;;;-6.61;73.38;102925.25;5004785;28;20507;-75
2024/01/09 03:02:59;;;;;;;15.52;5.13;;;;;;;-6.54;73.21;102921.91;5007842;28;20041;-74
2024/01/09 03:05:25;;;;;;;13.25;4.35;;;;;;;-6.56;73.08;102920.22;4989171;28;20041;-74
2024/01/09 03:07:50;;;;;;;11.50;4.88;;;;;;;-6.52;73.79;102927.78;5025617;28;20036;-74
2024/01/09 03:10:16;;;;;;;14.68;4.63;;;;;;;-6.48;72.55;102923.59;5007998;28;20772;-74
2024/01/09 03:12:41;;;;;;;11.68;4.50;;;;;;;-6.43;72.45;102923.63;5023799;28;20087;-74
2024/01/09 03:15:08;;;;;;;13.15;5.07;;;;;;;-6.52;72.71;102930.31;5007696;28;20034;-74
2024/01/09 03:17:34;;;;;;;13.20;5.38;;;;;;;-6.51;72.30;102931.19;5007111;28;20025;-74
2024/01/09 03:20:00;;;;;;;12.30;4.90;;;;;;;-6.49;72.71;102935.38;5023780;28;20070;-74
2024/01/09 03:22:26;;;;;;;10.45;4.53;;;;;;;-6.53;73.20;102931.16;5003488;28;20038;-74
2024/01/09 03:24:51;;;;;;;12.50;4.50;;;;;;;-6.58;73.97;102924.41;5000805;28;20079;-74
2024/01/09 03:27:17;;;;;;;9.52;4.20;;;;;;;-6.67;73.90;102922.69;5010433;28;20046;-74
2024/01/09 03:29:42;;;;;;;12.35;4.57;;;;;;;-6.66;74.35;102916.81;4998786;28;20045;-74
2024/01/09 03:32:07;;;;;;;14.73;5.30;;;;;;;-6.66;74.46;102912.59;4995614;28;20092;-74
2024/01/09 03:34:33;;;;;;;9.43;4.22;;;;;;;-6.63;73.80;102913.44;5000200;28;21654;-74
2024/01/09 03:36:58;;;;;;;16.48;4.95;;;;;;;-6.71;74.06;102918.47;4995343;28;20393;-74
2024/01/09 03:39:24;;;;;;;10.60;4.40;;;;;;;-6.75;74.98;102921.81;5000235;28;20074;-74
2024/01/09 03:41:51;;;;;;;11.93;5.10;;;;;;;-6.81;75.22;102921.78;4983205;28;20049;-74
2024/01/09 03:44:17;;;;;;;13.60;4.75;;;;;;;-6.76;75.11;102923.50;5003559;28;20551;-74
2024/01/09 03:46:43;;;;;;;10.95;4.47;;;;;;;-6.71;74.33;102919.28;4998526;28;20168;-74
2024/01/09 03:49:09;;;;;;;12.40;5.18;;;;;;;-6.71;74.84;102916.78;5002287;28;20033;-74
2024/01/09 03:51:34;;;;;;;12.30;5.20;;;;;;;-6.68;74.79;102921.00;5001511;28;20041;-74
2024/01/09 03:54:00;;;;;;;13.15;4.78;;;;;;;-6.70;74.00;102920.16;4998777;28;21912;-73
2024/01/09 03:56:25;;;;;;;11.18;4.35;;;;;;;-6.73;75.02;102920.13;5000535;28;21762;-74
2024/01/09 03:58:52;;;;;;;12.13;4.80;;;;;;;-6.75;75.16;102922.66;5019745;28;20415;-74
2024/01/09 04:01:17;;;;;;;11.80;4.85;;;;;;;-6.66;74.66;102919.34;5001786;28;20041;-74
2024/01/09 04:03:43;;;;;;;10.07;4.07;;;;;;;-6.70;74.17;102920.16;5005575;28;20037;-74
2024/01/09 04:06:08;;;;;;;12.90;4.63;;;;;;;-6.78;75.46;102925.19;5005168;28;20554;-74
2024/01/09 04:08:34;;;;;;;12.20;4.85;;;;;;;-6.85;75.55;102919.25;5003543;28;20076;-74
2024/01/09 04:11:02;;;;;;;14.55;4.80;;;;;;;-6.89;76.15;102920.06;5001386;28;20069;-74
2024/01/09 04:13:28;;;;;;;10.95;4.22;;;;;;;-6.79;75.30;102917.59;5005929;28;20085;-74
2024/01/09 04:15:53;;;;;;;11.48;4.07;;;;;;;-6.85;75.68;102915.88;5001422;28;20034;-74
2024/01/09 04:18:19;;;;;;;11.88;4.30;;;;;;;-6.78;75.59;102921.78;5021423;28;20034;-74
2024/01/09 04:20:44;;;;;;;10.38;4.15;;;;;;;-6.82;75.77;102920.09;5005576;28;20042;-74
2024/01/09 04:23:10;;;;;;;13.70;5.35;;;;;;;-6.82;75.83;102920.09;5022335;28;20026;-74
2024/01/09 04:25:35;;;;;;;9.63;4.32;;;;;;;-6.76;75.68;102920.97;5003267;28;20047;-73
2024/01/09 04:28:01;;;;;;;10.00;4.40;;;;;;;-6.81;75.19;102914.22;5003143;28;20099;-74
2024/01/09 04:30:26;;;;;;;13.13;4.70;;;;;;;-6.80;75.83;102918.41;5002274;28;20042;-75
2024/01/09 04:32:52;;;;;;;15.43;5.10;;;;;;;-6.79;76.26;102925.16;5005284;28;20050;-74
2024/01/09 04:35:18;;;;;;;11.00;4.60;;;;;;;-6.82;76.50;102918.41;5015839;28;20097;-74
2024/01/09 04:37:44;;;;;;;11.82;4.82;;;;;;;-6.89;76.92;102917.53;5007182;28;20037;-74
2024/01/09 04:40:09;;;;;;;10.23;4.07;;;;;;;-6.90;76.96;102917.53;5006083;28;20072;-74
2024/01/09 04:42:35;;;;;;;9.18;4.07;;;;;;;-6.81;75.81;102914.22;4998107;28;20041;-74
2024/01/09 04:45:00;;;;;;;13.60;5.63;;;;;;;-6.92;76.42;102917.53;5003840;28;20401;-74
2024/01/09 04:47:26;;;;;;;16.38;5.00;;;;;;;-6.87;77.14;102920.91;5004828;28;20045;-74
2024/01/09 04:49:51;;;;;;;9.55;4.18;;;;;;;-6.79;75.82;102922.66;5016784;28;20451;-74
2024/01/09 04:52:17;;;;;;;14.13;5.65;;;;;;;-6.89;76.24;102909.97;5018915;28;20026;-74
2024/01/09 04:54:42;;;;;;;16.88;4.78;;;;;;;-6.85;75.68;102905.78;4988950;28;20037;-74
2024/01/09 04:57:08;;;;;;;13.07;4.97;;;;;;;-6.88;75.94;102904.06;5001526;28;22084;-74
2024/01/09 04:59:33;;;;;;;20.23;6.57;;;;;;;-6.91;76.18;102913.31;5005861;28;20065;-74
2024/01/09 05:02:01;;;;;;;9.90;4.75;;;;;;;-6.86;75.49;102904.94;5019463;28;20042;-74
2024/01/09 05:04:29;;;;;;;12.50;5.45;;;;;;;-6.94;76.46;102913.31;5002394;28;20042;-74
2024/01/09 05:06:54;;;;;;;11.27;4.60;;;;;;;-6.90;76.38;102905.75;5002610;28;20044;-74
2024/01/09 05:09:19;;;;;;;17.67;5.38;;;;;;;-6.94;75.87;102904.06;5004671;28;20042;-74
2024/01/09 05:11:45;;;;;;;13.75;4.97;;;;;;;-6.93;75.97;102902.38;5002915;28;20041;-74
2024/01/09 05:14:10;;;;;;;13.43;4.55;;;;;;;-6.88;76.21;102891.47;5007392;28;20049;-74
2024/01/09 05:16:36;;;;;;;11.35;4.30;;;;;;;-6.89;75.79;102902.41;5003311;28;20456;-74
2024/01/09 05:19:01;;;;;;;14.35;5.22;;;;;;;-6.92;76.25;102902.38;5005611;28;20033;-74
2024/01/09 05:21:27;;;;;;;14.73;5.18;;;;;;;-6.93;77.20;102895.66;5000710;28;20042;-74
2024/01/09 05:23:52;;;;;;;12.07;4.68;;;;;;;-6.99;77.50;102894.78;5003794;28;20030;-74
2024/01/09 05:26:18;;;;;;;11.57;5.20;;;;;;;-6.97;77.48;102895.63;5003871;28;20519;-74
2024/01/09 05:28:43;;;;;;;11.05;4.70;;;;;;;-7.02;77.86;102889.75;5002768;28;20053;-74
2024/01/09 05:31:08;;;;;;;10.57;4.43;;;;;;;-7.00;77.62;102895.63;5003151;28;20083;-74
2024/01/09 05:33:35;;;;;;;13.48;5.18;;;;;;;-7.05;78.67;102893.91;4996108;28;20081;-74
2024/01/09 05:36:01;;;;;;;14.10;5.43;;;;;;;-7.05;78.63;102890.53;5007955;28;20029;-73
2024/01/09 05:38:26;;;;;;;15.88;5.05;;;;;;;-7.02;78.72;102902.34;5003244;28;20393;-74
2024/01/09 05:40:52;;;;;;;16.80;5.57;;;;;;;-7.02;79.16;102898.13;5007289;28;20046;-74
2024/01/09 05:43:17;;;;;;;18.85;5.25;;;;;;;-7.05;79.23;102898.13;5002613;28;20061;-74
2024/01/09 05:45:43;;;;;;;15.82;5.40;;;;;;;-7.09;79.11;102902.28;5004676;28;20044;-74
2024/01/09 05:48:08;;;;;;;13.40;4.47;;;;;;;-7.02;79.48;102898.13;5006042;28;20030;-74
2024/01/09 05:50:34;;;;;;;15.75;5.25;;;;;;;-7.02;78.56;102905.72;5018246;28;20049;-74
2024/01/09 05:53:01;;;;;;;12.13;4.95;;;;;;;-7.03;78.59;102898.97;5005517;28;20034;-74
2024/01/09 05:55:26;;;;;;;16.08;5.53;;;;;;;-7.05;79.20;102904.00;5003213;28;20065;-74
2024/01/09 05:57:52;;;;;;;16.88;5.38;;;;;;;-6.97;79.42;102908.25;5004940;28;20615;-74
2024/01/09 06:00:18;;;;;;;15.32;6.15;;;;;;;-7.05;79.36;102910.72;5002212;28;20447;-74
2024/01/09 06:02:43;;;;;;;12.27;5.25;;;;;;;-7.09;79.17;102901.47;5005291;28;20041;-74
2024/01/09 06:05:09;;;;;;;20.08;5.97;;;;;;;-7.07;79.19;102913.22;5009075;28;20510;-74
2024/01/09 06:07:34;;;;;;;15.57;5.97;;;;;;;-7.06;79.22;102909.88;5032337;28;20037;-74
2024/01/09 06:10:00;;;;;;;44.75;13.73;;;;;;;-7.05;79.58;102901.47;5031366;28;20060;-74
2024/01/09 06:12:25;;;;;;;14.65;6.45;;;;;;;-7.08;78.98;102906.53;5028762;28;20495;-74
2024/01/09 06:14:51;;;;;;;20.23;7.88;;;;;;;-7.09;79.43;102906.50;5031277;28;21015;-74
2024/01/09 06:17:16;;;;;;;13.90;5.93;;;;;;;-7.12;79.34;102911.50;4994851;28;20029;-74
2024/01/09 06:19:42;;;;;;;13.77;5.47;;;;;;;-7.08;78.89;102910.72;5033655;28;20550;-74
2024/01/09 06:22:07;;;;;;;15.30;5.97;;;;;;;-7.15;79.29;102909.84;5015759;28;20154;-73
2024/01/09 06:24:33;;;;;;;13.45;5.15;;;;;;;-7.11;79.02;102919.09;5029481;28;20044;-73
2024/01/09 06:26:58;;;;;;;12.82;5.75;;;;;;;-7.12;79.48;102906.47;4992834;28;20057;-74
2024/01/09 06:29:24;;;;;;;23.63;6.85;;;;;;;-7.09;80.02;102911.53;5014895;28;20061;-74
2024/01/09 06:31:49;;;;;;;14.82;6.38;;;;;;;-7.14;79.87;102915.72;5012190;28;20039;-73
2024/01/09 06:34:14;;;;;;;16.83;6.95;;;;;;;-7.03;78.81;102918.31;5007291;28;20034;-73
2024/01/09 06:36:40;;;;;;;20.27;5.85;;;;;;;-7.10;79.14;102920.81;5003106;28;20041;-73
2024/01/09 06:39:06;;;;;;;16.50;5.55;;;;;;;-7.15;80.25;102927.47;5007125;28;20033;-73
2024/01/09 06:41:31;;;;;;;15.63;5.80;;;;;;;-7.09;79.81;102925.00;5009034;28;20088;-74
2024/01/09 06:43:57;;;;;;;14.02;5.95;;;;;;;-7.12;79.44;102925.00;5014274;28;20041;-73
2024/01/09 06:46:22;;;;;;;14.13;5.88;;;;;;;-7.13;79.80;102923.28;5002743;28;20037;-73
2024/01/09 06:48:48;;;;;;;15.07;5.75;;;;;;;-7.13;79.92;102927.50;5030398;28;20025;-73
2024/01/09 06:51:13;;;;;;;18.17;5.63;;;;;;;-7.15;79.54;102926.66;5012601;28;20577;-74
2024/01/09 06:53:39;;;;;;;11.35;4.68;;;;;;;-7.09;78.42;102934.25;5028121;28;20037;-74
2024/01/09 06:56:05;;;;;;;19.35;5.82;;;;;;;-7.20;78.87;102925.78;5012015;28;20042;-73
2024/01/09 06:58:31;;;;;;;16.60;5.82;;;;;;;-7.27;80.06;102932.44;5013095;28;20048;-73
2024/01/09 07:00:56;;;;;;;17.00;6.03;;;;;;;-7.25;79.28;102934.16;5021089;28;20489;-74
2024/01/09 07:03:21;;;;;;;16.40;5.97;;;;;;;-7.19;79.22;102935.03;5038299;23;20045;-76
2024/01/09 07:05:47;;;;;;;14.20;6.32;;;;;;;-7.21;79.35;102936.66;5011916;28;20057;-76
2024/01/09 07:08:12;;;;;;;15.35;5.50;;;;;;;-7.24;79.04;102940.03;4993929;28;20034;-76
2024/01/09 07:10:38;;;;;;;12.30;5.72;;;;;;;-7.25;79.58;102945.94;5029021;28;20521;-76
2024/01/09 07:13:03;;;;;;;16.60;6.22;;;;;;;-7.30;80.18;102950.09;5005044;28;20045;-76
2024/01/09 07:15:29;;;;;;;17.65;5.90;;;;;;;-7.30;80.34;102943.34;5005831;28;20029;-76
2024/01/09 07:17:54;;;;;;;16.20;6.47;;;;;;;-7.30;80.59;102948.41;5023781;28;20447;-77
2024/01/09 07:20:20;;;;;;;15.20;6.30;;;;;;;-7.34;81.42;102954.25;5025552;28;20041;-76
2024/01/09 07:22:48;;;;;;;18.80;6.07;;;;;;;-7.40;81.72;102945.78;5028919;28;20109;-77
2024/01/09 07:25:14;;;;;;;16.25;6.53;;;;;;;-7.43;81.63;102955.00;5012452;28;20399;-77
2024/01/09 07:27:39;;;;;;;18.35;6.30;;;;;;;-7.42;81.91;102953.38;5021034;28;20660;-77
2024/01/09 07:30:05;;;;;;;17.73;6.30;;;;;;;-7.35;82.24;102950.03;5026463;28;20037;-76
2024/01/09 07:32:31;;;;;;;16.63;6.53;;;;;;;-7.37;81.33;102953.38;5014094;28;20052;-76
2024/01/09 07:34:56;;;;;;;16.67;5.60;;;;;;;-7.37;81.60;102951.69;5029556;28;20032;-76
2024/01/09 07:37:22;;;;;;;20.67;6.88;;;;;;;-7.42;82.04;102948.31;5043522;28;20033;-76
2024/01/09 07:39:48;;;;;;;18.52;6.63;;;;;;;-7.44;81.91;102952.47;5033013;28;20652;-77
2024/01/09 07:42:13;;;;;;;15.93;6.30;;;;;;;-7.44;81.74;102952.47;5025177;28;20407;-77
2024/01/09 07:44:39;;;;;;;23.00;6.93;;;;;;;-7.29;81.44;102956.78;5022858;28;20040;-76
2024/01/09 07:47:07;;;;;;;68.72;18.60;;;;;;;-7.27;81.14;102957.66;5008867;28;20037;-77
2024/01/09 07:49:33;;;;;;;20.48;8.07;;;;;;;-7.22;80.52;102950.97;5029110;28;20042;-76
2024/01/09 07:51:58;;;;;;;18.58;6.65;;;;;;;-7.25;79.51;102959.38;5027576;28;20038;-76
2024/01/09 07:54:24;;;;;;;16.90;6.15;;;;;;;-7.29;80.40;102962.72;5013133;28;20048;-77
2024/01/09 07:56:49;;;;;;;21.92;7.00;;;;;;;-7.27;80.57;102967.72;5025258;28;20045;-77
2024/01/09 07:59:14;;;;;;;18.38;6.35;;;;;;;-7.28;81.13;102971.94;5026417;28;20033;-75
2024/01/09 08:01:40;;;;;;;15.48;6.47;;;;;;;-7.14;79.95;102967.03;5021585;28;20037;-76
2024/01/09 08:04:06;;;;;;;17.95;6.68;;;;;;;-7.13;79.69;102960.28;5020629;28;20037;-76
2024/01/09 08:06:32;;;;;;;16.50;6.07;;;;;;;-7.10;79.64;102963.69;5012217;28;20117;-76
2024/01/09 08:08:58;;;;;;;15.50;6.35;;;;;;;-7.14;79.72;102969.53;5030138;28;20193;-76
2024/01/09 08:11:23;;;;;;;14.18;5.88;;;;;;;-7.10;79.92;102965.34;5009171;28;20563;-76
2024/01/09 08:13:49;;;;;;;14.75;5.88;;;;;;;-7.11;79.65;102969.53;5009935;28;20041;-77
2024/01/09 08:16:14;;;;;;;19.75;5.82;;;;;;;-7.08;79.11;102968.75;5019955;28;20052;-77
2024/01/09 08:18:40;;;;;;;20.45;6.22;;;;;;;-6.97;78.28;102963.75;5028228;28;20033;-77
2024/01/09 08:21:06;;;;;;;18.05;6.55;;;;;;;-6.97;78.78;102953.66;5025065;28;20526;-77
2024/01/09 08:23:31;;;;;;;18.88;6.95;;;;;;;-6.89;77.79;102962.97;5027300;28;20506;-77
2024/01/09 08:25:57;;;;;;;19.40;6.93;;;;;;;-6.87;77.76;102965.50;5036342;28;20037;-77
2024/01/09 08:28:23;;;;;;;18.75;6.60;;;;;;;-6.87;77.54;102956.25;5026514;28;20801;-77
2024/01/09 08:30:48;;;;;;;21.95;7.18;;;;;;;-6.93;77.64;102961.25;5043256;28;20036;-77
2024/01/09 08:33:14;;;;;;;20.30;6.65;;;;;;;-6.90;77.70;102968.84;5048957;28;20533;-77
2024/01/09 08:35:39;;;;;;;15.20;6.75;;;;;;;-6.85;77.17;102966.34;5014933;28;20155;-76
2024/01/09 08:38:05;;;;;;;22.42;7.15;;;;;;;-6.81;76.87;102970.56;5012054;28;20483;-77
2024/01/09 08:40:31;;;;;;;16.42;6.28;;;;;;;-6.76;76.96;102971.44;5031294;28;20124;-77
2024/01/09 08:42:56;;;;;;;20.20;7.30;;;;;;;-6.76;77.03;102976.50;5046950;28;20414;-77
2024/01/09 08:45:22;;;;;;;18.90;7.38;;;;;;;-6.73;75.99;102970.63;5039946;28;20045;-77
2024/01/09 08:47:47;;;;;;;18.60;6.63;;;;;;;-6.71;75.61;102977.34;5045483;28;20028;-77
2024/01/09 08:50:13;;;;;;;22.50;6.68;;;;;;;-6.63;75.73;102974.03;5014535;28;20094;-77
2024/01/09 08:52:38;;;;;;;19.13;6.88;;;;;;;-6.63;75.35;102971.50;5045176;28;20433;-77
2024/01/09 08:55:04;;;;;;;19.58;6.82;;;;;;;-6.66;74.42;102972.34;5032072;28;20039;-77
2024/01/09 08:57:30;;;;;;;19.58;7.07;;;;;;;-6.57;73.86;102969.88;5050267;28;20055;-78
2024/01/09 08:59:57;;;;;;;18.08;6.60;;;;;;;-6.57;73.46;102969.00;5013828;28;20021;-77
2024/01/09 09:02:23;;;;;;;16.70;5.70;;;;;;;-6.58;73.95;102974.91;5028661;28;20045;-77
2024/01/09 09:04:49;;;;;;;17.58;6.30;;;;;;;-6.58;73.69;102979.94;5028292;28;20395;-78
2024/01/09 09:07:15;;;;;;;17.85;6.82;;;;;;;-6.49;73.81;102973.25;5043245;28;20029;-77
2024/01/09 09:09:41;;;;;;;18.98;7.05;;;;;;;-6.46;73.66;102973.28;5026591;28;20041;-77
2024/01/09 09:12:06;;;;;;;19.05;6.78;;;;;;;-6.45;74.54;102981.69;5046346;28;20040;-77
2024/01/09 09:14:32;;;;;;;16.98;6.32;;;;;;;-6.49;73.45;102974.94;5025290;28;20450;-77
2024/01/09 09:16:58;;;;;;;19.73;6.25;;;;;;;-6.45;73.67;102981.69;5003643;28;20033;-78
2024/01/09 09:19:23;;;;;;;19.80;7.55;;;;;;;-6.40;73.49;102976.66;5010440;28;20665;-78
2024/01/09 09:21:53;;;;;;;20.50;7.22;;;;;;;-6.34;73.27;102984.28;5008205;28;20414;-77
2024/01/09 09:24:18;;;;;;;17.77;7.80;;;;;;;-6.34;73.23;102979.22;5026545;28;20503;-77
2024/01/09 09:26:44;;;;;;;22.00;7.68;;;;;;;-6.23;73.16;102985.16;5008527;28;20036;-78
2024/01/09 09:29:10;;;;;;;18.48;6.88;;;;;;;-6.24;72.84;102977.56;5023706;28;20029;-77
2024/01/09 09:31:35;;;;;;;19.52;7.15;;;;;;;-6.28;72.36;102977.53;5027168;28;20466;-77
2024/01/09 09:34:01;;;;;;;16.52;7.25;;;;;;;-6.20;72.15;102982.63;5041958;28;20419;-77
2024/01/09 09:36:26;;;;;;;20.00;6.95;;;;;;;-6.16;72.55;102975.91;5026367;28;20029;-77
2024/01/09 09:38:53;;;;;;;18.05;7.07;;;;;;;-6.15;71.81;102980.97;5041454;28;20510;-77
2024/01/09 09:41:20;;;;;;;17.25;6.72;;;;;;;-6.07;72.43;102981.81;5025778;28;20122;-78
2024/01/09 09:43:56;;;;;;;19.30;7.10;;;;;;;-5.98;72.00;102975.13;5022936;28;20056;-77
2024/01/09 09:46:26;;;;;;;18.95;7.20;;;;;;;-5.95;72.46;102985.22;5033535;28;20040;-77
2024/01/09 09:48:54;;;;;;;16.73;6.65;;;;;;;-5.94;70.69;102982.66;5030420;28;21024;-77
2024/01/09 09:51:21;;;;;;;19.08;7.10;;;;;;;-5.97;71.10;102979.31;5011114;28;20033;-78
2024/01/09 09:53:47;;;;;;;23.70;7.00;;;;;;;-5.87;70.27;102981.00;5039882;28;20025;-77
2024/01/09 09:56:16;;;;;;;21.90;7.65;;;;;;;-5.81;70.35;102977.66;5027232;28;20044;-77
2024/01/09 09:58:41;;;;;;;19.63;6.82;;;;;;;-5.82;70.03;102973.41;5026713;28;20039;-77
2024/01/09 10:01:12;;;;;;;21.35;8.05;;;;;;;-5.80;69.45;102971.72;5024323;28;20124;-77
2024/01/09 10:03:49;;;;;;;15.98;6.80;;;;;;;-5.82;69.31;102970.91;5011628;28;20038;-78
2024/01/09 10:06:18;;;;;;;20.10;8.13;;;;;;;-5.76;70.00;102974.28;5039445;28;20050;-77
2024/01/09 10:08:46;;;;;;;25.75;7.68;;;;;;;-5.64;69.16;102975.16;5005006;28;20034;-78
2024/01/09 10:11:11;;;;;;;16.70;6.43;;;;;;;-5.59;68.58;102976.00;5026989;28;20044;-78
2024/01/09 10:13:38;;;;;;;20.35;7.28;;;;;;;-5.57;68.47;102974.31;5028000;28;20037;-77
2024/01/09 10:16:04;;;;;;;18.60;6.80;;;;;;;-5.47;68.12;102976.81;5026662;28;20074;-78
2024/01/09 10:18:33;;;;;;;18.45;6.32;;;;;;;-5.41;67.05;102965.03;5013714;28;20063;-78
2024/01/09 10:20:59;;;;;;;23.30;7.47;;;;;;;-5.40;67.91;102964.19;5021678;28;20113;-77
2024/01/09 10:23:28;;;;;;;17.42;7.30;;;;;;;-5.41;67.56;102957.44;5011119;28;20089;-77
2024/01/09 10:25:57;;;;;;;20.13;7.40;;;;;;;-5.24;67.07;102959.97;5042078;28;20065;-78
2024/01/09 10:28:24;;;;;;;15.63;6.97;;;;;;;-5.28;66.70;102964.19;5011775;28;20034;-77
2024/01/09 10:30:53;;;;;;;16.75;6.93;;;;;;;-5.25;67.14;102955.75;5009313;28;20061;-78
2024/01/09 10:33:19;;;;;;;22.05;7.40;;;;;;;-5.16;67.13;102958.25;5011926;28;20029;-78
2024/01/09 10:35:45;;;;;;;19.40;7.60;;;;;;;-5.17;67.93;102956.59;5005099;28;20045;-78
2024/01/09 10:38:10;;;;;;;19.52;7.47;;;;;;;-5.16;68.82;102958.25;5023998;28;20040;-77
2024/01/09 10:40:37;;;;;;;25.20;7.25;;;;;;;-5.12;68.66;102952.38;5030699;28;20483;-77
2024/01/09 10:43:03;;;;;;;23.95;7.72;;;;;;;-5.07;67.98;102949.81;5014977;28;20033;-78
2024/01/09 10:45:30;;;;;;;26.42;8.77;;;;;;;-4.97;67.32;102948.94;5026147;28;20045;-78
2024/01/09 10:47:58;;;;;;;19.15;7.72;;;;;;;-4.96;66.63;102955.72;5032843;28;20033;-78
2024/01/09 10:50:24;;;;;;;23.95;8.32;;;;;;;-4.96;66.48;102948.94;5028456;28;20052;-77
2024/01/09 10:52:50;;;;;;;16.38;7.32;;;;;;;-4.94;66.54;102952.31;5030236;28;20079;-77
2024/01/09 10:55:19;;;;;;;21.83;7.35;;;;;;;-4.85;66.23;102943.03;5048470;28;20032;-77
2024/01/09 10:57:47;;;;;;;21.25;7.07;;;;;;;-4.80;66.43;102933.72;5032677;28;20390;-77
2024/01/09 11:00:13;;;;;;;16.05;6.32;;;;;;;-4.75;66.10;102939.63;5014224;28;20075;-77
2024/01/09 11:02:39;;;;;;;19.40;7.53;;;;;;;-4.77;65.81;102929.47;5050505;28;20040;-78
2024/01/09 11:05:10;;;;;;;16.08;7.47;;;;;;;-4.78;66.09;102927.81;5048722;28;20115;-76
2024/01/09 11:07:37;;;;;;;23.05;7.45;;;;;;;-4.68;64.82;102921.03;5018052;28;20509;-76
2024/01/09 11:10:06;;;;;;;18.75;7.18;;;;;;;-4.66;65.30;102915.97;5050382;28;21312;-77